sensor_id;sensor_type;location;lat;lon;timestamp;pressure;altitude;pressure_sealevel;temperature;humidity
47815;BME280;33579;50.058;18.130;2023-08-01T00:00:04;98422.41;;;20.41;100.00
47815;BME280;33579;50.058;18.130;2023-08-01T00:01:12;98421.38;;;20.42;100.00
47815;BME280;33579;50.058;18.130;2023-08-01T00:02:14;98423.44;;;20.40;100.00
47815;BME280;33579;50.058;18.130;2023-08-01T00:03:16;98411.72;;;20.41;100.00
47815;BME280;33579;50.058;18.130;2023-08-01T00:04:18;98419.75;;;20.41;100.00
47815;BME280;33579;50.058;18.130;2023-08-01T00:05:19;98412.56;;;20.42;100.00
47815;BME280;33579;50.058;18.130;2023-08-01T00:06:21;98407.22;;;20.42;100.00
47815;BME280;33579;50.058;18.130;2023-08-01T00:07:23;98406.63;;;20.40;100.00
47815;BME280;33579;50.058;18.130;2023-08-01T00:08:25;98403.94;;;20.40;100.00
47815;BME280;33579;50.058;18.130;2023-08-01T00:09:27;98405.00;;;20.39;100.00
47815;BME280;33579;50.058;18.130;2023-08-01T00:10:29;98409.09;;;20.34;100.00
47815;BME280;33579;50.058;18.130;2023-08-01T00:11:31;98406.69;;;20.33;100.00
47815;BME280;33579;50.058;18.130;2023-08-01T00:12:33;98408.31;;;20.34;100.00
47815;BME280;33579;50.058;18.130;2023-08-01T00:13:34;98406.69;;;20.33;100.00
47815;BME280;33579;50.058;18.130;2023-08-01T00:14:36;98399.47;;;20.33;100.00
47815;BME280;33579;50.058;18.130;2023-08-01T00:15:38;98406.88;;;20.31;100.00
47815;BME280;33579;50.058;18.130;2023-08-01T00:16:43;98395.38;;;20.31;100.00
47815;BME280;33579;50.058;18.130;2023-08-01T00:17:45;98393.72;;;20.30;100.00
47815;BME280;33579;50.058;18.130;2023-08-01T00:18:47;98400.34;;;20.27;100.00
47815;BME280;33579;50.058;18.130;2023-08-01T00:19:48;98393.56;;;20.25;100.00
47815;BME280;33579;50.058;18.130;2023-08-01T00:20:52;98389.91;;;20.19;100.00
47815;BME280;33579;50.058;18.130;2023-08-01T00:21:54;98390.75;;;20.19;100.00
47815;BME280;33579;50.058;18.130;2023-08-01T00:22:56;98390.16;;;20.11;100.00
47815;BME280;33579;50.058;18.130;2023-08-01T00:23:57;98389.88;;;19.87;100.00
47815;BME280;33579;50.058;18.130;2023-08-01T00:24:59;98394.34;;;19.54;100.00
47815;BME280;33579;50.058;18.130;2023-08-01T00:26:01;98392.53;;;19.48;100.00
47815;BME280;33579;50.058;18.130;2023-08-01T00:27:03;98393.59;;;19.40;100.00
47815;BME280;33579;50.058;18.130;2023-08-01T00:28:04;98398.34;;;19.24;100.00
47815;BME280;33579;50.058;18.130;2023-08-01T00:29:06;98398.00;;;19.14;100.00
47815;BME280;33579;50.058;18.130;2023-08-01T00:30:08;98391.66;;;19.08;100.00
47815;BME280;33579;50.058;18.130;2023-08-01T00:31:10;98383.44;;;19.10;100.00
47815;BME280;33579;50.058;18.130;2023-08-01T00:32:12;98382.19;;;19.13;100.00
47815;BME280;33579;50.058;18.130;2023-08-01T00:33:14;98383.44;;;19.10;100.00
47815;BME280;33579;50.058;18.130;2023-08-01T00:34:16;98379.72;;;19.18;100.00
47815;BME280;33579;50.058;18.130;2023-08-01T00:35:17;98378.44;;;19.27;100.00
47815;BME280;33579;50.058;18.130;2023-08-01T00:36:19;98379.03;;;19.36;100.00
47815;BME280;33579;50.058;18.130;2023-08-01T00:37:21;98382.50;;;19.43;100.00
47815;BME280;33579;50.058;18.130;2023-08-01T00:38:22;98366.91;;;19.47;100.00
47815;BME280;33579;50.058;18.130;2023-08-01T00:39:24;98378.16;;;19.49;100.00
47815;BME280;33579;50.058;18.130;2023-08-01T00:40:32;98374.28;;;19.51;100.00
47815;BME280;33579;50.058;18.130;2023-08-01T00:41:34;98367.66;;;19.54;100.00
47815;BME280;33579;50.058;18.130;2023-08-01T00:42:36;98368.91;;;19.58;100.00
47815;BME280;33579;50.058;18.130;2023-08-01T00:43:38;98366.00;;;19.60;100.00
47815;BME280;33579;50.058;18.130;2023-08-01T00:44:40;98361.25;;;19.62;100.00
47815;BME280;33579;50.058;18.130;2023-08-01T00:45:42;98360.47;;;19.61;100.00
47815;BME280;33579;50.058;18.130;2023-08-01T00:46:44;98359.44;;;19.62;100.00
47815;BME280;33579;50.058;18.130;2023-08-01T00:47:46;98359.22;;;19.64;100.00
47815;BME280;33579;50.058;18.130;2023-08-01T00:48:48;98358.19;;;19.65;100.00
47815;BME280;33579;50.058;18.130;2023-08-01T00:49:50;98357.38;;;19.64;100.00
47815;BME280;33579;50.058;18.130;2023-08-01T00:50:52;98356.56;;;19.64;100.00
47815;BME280;33579;50.058;18.130;2023-08-01T00:51:54;98348.56;;;19.64;100.00
47815;BME280;33579;50.058;18.130;2023-08-01T00:52:55;98346.91;;;19.63;100.00
47815;BME280;33579;50.058;18.130;2023-08-01T00:53:57;98347.13;;;19.61;100.00
47815;BME280;33579;50.058;18.130;2023-08-01T00:55:00;98339.72;;;19.63;100.00
47815;BME280;33579;50.058;18.130;2023-08-01T00:56:02;98337.06;;;19.63;100.00
47815;BME280;33579;50.058;18.130;2023-08-01T00:57:05;98340.56;;;19.64;100.00
47815;BME280;33579;50.058;18.130;2023-08-01T00:58:07;98337.25;;;19.62;100.00
47815;BME280;33579;50.058;18.130;2023-08-01T00:59:08;98332.94;;;19.61;100.00
47815;BME280;33579;50.058;18.130;2023-08-01T01:00:10;98331.72;;;19.63;100.00
47815;BME280;33579;50.058;18.130;2023-08-01T01:01:12;98329.69;;;19.59;100.00
47815;BME280;33579;50.058;18.130;2023-08-01T01:02:14;98333.00;;;19.54;100.00
47815;BME280;33579;50.058;18.130;2023-08-01T01:03:16;98324.59;;;19.57;100.00
47815;BME280;33579;50.058;18.130;2023-08-01T01:04:18;98326.59;;;19.62;100.00
47815;BME280;33579;50.058;18.130;2023-08-01T01:05:21;98329.25;;;19.62;100.00
47815;BME280;33579;50.058;18.130;2023-08-01T01:07:29;98314.75;;;19.51;100.00
47815;BME280;33579;50.058;18.130;2023-08-01T01:08:32;98315.16;;;19.55;100.00
47815;BME280;33579;50.058;18.130;2023-08-01T01:09:34;98310.41;;;19.57;100.00
47815;BME280;33579;50.058;18.130;2023-08-01T01:10:35;98317.19;;;19.59;100.00
47815;BME280;33579;50.058;18.130;2023-08-01T01:11:37;98306.13;;;19.56;100.00
47815;BME280;33579;50.058;18.130;2023-08-01T01:12:39;98306.56;;;19.52;100.00
47815;BME280;33579;50.058;18.130;2023-08-01T01:13:41;98299.34;;;19.53;100.00
47815;BME280;33579;50.058;18.130;2023-08-01T01:14:42;98308.19;;;19.54;100.00
47815;BME280;33579;50.058;18.130;2023-08-01T01:15:44;98306.19;;;19.42;100.00
47815;BME280;33579;50.058;18.130;2023-08-01T01:16:46;98302.91;;;19.40;100.00
47815;BME280;33579;50.058;18.130;2023-08-01T01:17:48;98302.50;;;19.43;100.00
47815;BME280;33579;50.058;18.130;2023-08-01T01:18:49;98298.94;;;19.49;100.00
47815;BME280;33579;50.058;18.130;2023-08-01T01:19:51;98300.19;;;19.54;100.00
47815;BME280;33579;50.058;18.130;2023-08-01T01:20:53;98299.75;;;19.57;100.00
47815;BME280;33579;50.058;18.130;2023-08-01T01:22:16;98286.19;;;19.58;100.00
47815;BME280;33579;50.058;18.130;2023-08-01T01:23:19;98291.31;;;19.60;100.00
47815;BME280;33579;50.058;18.130;2023-08-01T01:24:23;98280.44;;;19.61;100.00
47815;BME280;33579;50.058;18.130;2023-08-01T01:25:27;98284.72;;;19.62;100.00
47815;BME280;33579;50.058;18.130;2023-08-01T01:26:30;98286.81;;;19.60;100.00
47815;BME280;33579;50.058;18.130;2023-08-01T01:27:34;98291.31;;;19.60;100.00
47815;BME280;33579;50.058;18.130;2023-08-01T01:28:37;98284.13;;;19.60;100.00
47815;BME280;33579;50.058;18.130;2023-08-01T01:29:40;98286.41;;;19.57;100.00
47815;BME280;33579;50.058;18.130;2023-08-01T01:30:45;98276.34;;;19.59;100.00
47815;BME280;33579;50.058;18.130;2023-08-01T01:31:48;98275.09;;;19.61;100.00
47815;BME280;33579;50.058;18.130;2023-08-01T01:32:51;98274.69;;;19.58;100.00
47815;BME280;33579;50.058;18.130;2023-08-01T01:33:54;98276.78;;;19.56;99.59
47815;BME280;33579;50.058;18.130;2023-08-01T01:34:56;98265.66;;;19.59;99.29
47815;BME280;33579;50.058;18.130;2023-08-01T01:36:00;98273.28;;;19.55;100.00
47815;BME280;33579;50.058;18.130;2023-08-01T01:37:02;98280.13;;;19.44;100.00
47815;BME280;33579;50.058;18.130;2023-08-01T01:38:04;98272.59;;;19.34;100.00
47815;BME280;33579;50.058;18.130;2023-08-01T01:39:06;98271.56;;;19.35;100.00
47815;BME280;33579;50.058;18.130;2023-08-01T01:40:08;98271.94;;;19.39;100.00
47815;BME280;33579;50.058;18.130;2023-08-01T01:41:10;98269.69;;;19.36;100.00
47815;BME280;33579;50.058;18.130;2023-08-01T01:42:12;98269.09;;;19.34;100.00
47815;BME280;33579;50.058;18.130;2023-08-01T01:43:13;98268.25;;;19.40;100.00
47815;BME280;33579;50.058;18.130;2023-08-01T01:44:15;98266.19;;;19.42;100.00
47815;BME280;33579;50.058;18.130;2023-08-01T01:45:17;98256.31;;;19.43;99.73
47815;BME280;33579;50.058;18.130;2023-08-01T01:46:18;98268.84;;;19.42;99.59
47815;BME280;33579;50.058;18.130;2023-08-01T01:47:20;98258.63;;;19.39;99.83
47815;BME280;33579;50.058;18.130;2023-08-01T01:48:22;98256.00;;;19.32;100.00
47815;BME280;33579;50.058;18.130;2023-08-01T01:49:23;98261.09;;;19.34;100.00
47815;BME280;33579;50.058;18.130;2023-08-01T01:50:25;98250.00;;;19.37;100.00
47815;BME280;33579;50.058;18.130;2023-08-01T01:51:29;98251.84;;;19.36;100.00
47815;BME280;33579;50.058;18.130;2023-08-01T01:52:31;98255.34;;;19.30;100.00
47815;BME280;33579;50.058;18.130;2023-08-01T01:53:32;98243.84;;;19.36;100.00
47815;BME280;33579;50.058;18.130;2023-08-01T01:54:35;98251.91;;;19.30;100.00
47815;BME280;33579;50.058;18.130;2023-08-01T01:55:36;98243.25;;;19.34;100.00
47815;BME280;33579;50.058;18.130;2023-08-01T01:56:38;98240.94;;;19.38;100.00
47815;BME280;33579;50.058;18.130;2023-08-01T01:57:40;98239.94;;;19.39;99.83
47815;BME280;33579;50.058;18.130;2023-08-01T01:58:42;98236.84;;;19.42;99.84
47815;BME280;33579;50.058;18.130;2023-08-01T01:59:44;98241.53;;;19.47;100.00
47815;BME280;33579;50.058;18.130;2023-08-01T02:00:45;98230.22;;;19.51;100.00
47815;BME280;33579;50.058;18.130;2023-08-01T02:01:47;98230.59;;;19.55;100.00
47815;BME280;33579;50.058;18.130;2023-08-01T02:02:49;98227.91;;;19.55;100.00
47815;BME280;33579;50.058;18.130;2023-08-01T02:03:50;98235.13;;;19.55;100.00
47815;BME280;33579;50.058;18.130;2023-08-01T02:04:52;98229.34;;;19.58;100.00
47815;BME280;33579;50.058;18.130;2023-08-01T02:05:54;98231.81;;;19.59;100.00
47815;BME280;33579;50.058;18.130;2023-08-01T02:06:56;98234.69;;;19.58;100.00
47815;BME280;33579;50.058;18.130;2023-08-01T02:07:58;98225.03;;;19.57;100.00
47815;BME280;33579;50.058;18.130;2023-08-01T02:09:00;98224.00;;;19.58;100.00
47815;BME280;33579;50.058;18.130;2023-08-01T02:10:04;98219.72;;;19.57;100.00
47815;BME280;33579;50.058;18.130;2023-08-01T02:11:08;98221.34;;;19.58;100.00
47815;BME280;33579;50.058;18.130;2023-08-01T02:12:09;98221.94;;;19.60;100.00
47815;BME280;33579;50.058;18.130;2023-08-01T02:13:11;98219.97;;;19.48;100.00
47815;BME280;33579;50.058;18.130;2023-08-01T02:14:13;98217.34;;;19.42;100.00
47815;BME280;33579;50.058;18.130;2023-08-01T02:15:15;98217.44;;;19.28;100.00
47815;BME280;33579;50.058;18.130;2023-08-01T02:16:16;98222.16;;;19.26;100.00
47815;BME280;33579;50.058;18.130;2023-08-01T02:17:18;98227.75;;;19.18;100.00
47815;BME280;33579;50.058;18.130;2023-08-01T02:18:20;98218.53;;;19.14;100.00
47815;BME280;33579;50.058;18.130;2023-08-01T02:19:22;98231.72;;;19.08;100.00
47815;BME280;33579;50.058;18.130;2023-08-01T02:20:23;98232.09;;;19.05;100.00
47815;BME280;33579;50.058;18.130;2023-08-01T02:21:26;98228.44;;;19.00;100.00
47815;BME280;33579;50.058;18.130;2023-08-01T02:22:28;98228.88;;;18.90;100.00
47815;BME280;33579;50.058;18.130;2023-08-01T02:23:30;98222.53;;;18.84;100.00
47815;BME280;33579;50.058;18.130;2023-08-01T02:24:31;98220.91;;;18.83;100.00
47815;BME280;33579;50.058;18.130;2023-08-01T02:25:38;98225.22;;;18.84;100.00
47815;BME280;33579;50.058;18.130;2023-08-01T02:26:40;98222.75;;;18.82;100.00
47815;BME280;33579;50.058;18.130;2023-08-01T02:27:42;98224.41;;;18.84;100.00
47815;BME280;33579;50.058;18.130;2023-08-01T02:28:43;98213.78;;;18.77;100.00
47815;BME280;33579;50.058;18.130;2023-08-01T02:29:45;98210.28;;;18.76;100.00
47815;BME280;33579;50.058;18.130;2023-08-01T02:30:47;98213.13;;;18.81;100.00
47815;BME280;33579;50.058;18.130;2023-08-01T02:31:49;98209.19;;;18.91;100.00
47815;BME280;33579;50.058;18.130;2023-08-01T02:32:50;98208.56;;;18.95;100.00
47815;BME280;33579;50.058;18.130;2023-08-01T02:33:53;98213.69;;;18.97;100.00
47815;BME280;33579;50.058;18.130;2023-08-01T02:34:54;98208.13;;;18.99;100.00
47815;BME280;33579;50.058;18.130;2023-08-01T02:35:56;98206.91;;;19.01;100.00
47815;BME280;33579;50.058;18.130;2023-08-01T02:36:58;98208.34;;;19.04;100.00
47815;BME280;33579;50.058;18.130;2023-08-01T02:38:00;98210.59;;;19.07;100.00
47815;BME280;33579;50.058;18.130;2023-08-01T02:39:02;98212.81;;;19.10;100.00
47815;BME280;33579;50.058;18.130;2023-08-01T02:40:04;98214.69;;;19.09;100.00
47815;BME280;33579;50.058;18.130;2023-08-01T02:41:06;98212.84;;;19.03;100.00
47815;BME280;33579;50.058;18.130;2023-08-01T02:42:07;98216.56;;;19.02;100.00
47815;BME280;33579;50.058;18.130;2023-08-01T02:43:09;98218.78;;;19.05;100.00
47815;BME280;33579;50.058;18.130;2023-08-01T02:44:11;98211.59;;;19.13;100.00
47815;BME280;33579;50.058;18.130;2023-08-01T02:45:12;98202.56;;;19.14;100.00
47815;BME280;33579;50.058;18.130;2023-08-01T02:46:14;98206.22;;;19.19;100.00
47815;BME280;33579;50.058;18.130;2023-08-01T02:47:16;98200.44;;;19.22;100.00
47815;BME280;33579;50.058;18.130;2023-08-01T02:48:17;98204.97;;;19.22;100.00
47815;BME280;33579;50.058;18.130;2023-08-01T02:49:20;98209.03;;;19.24;100.00
47815;BME280;33579;50.058;18.130;2023-08-01T02:50:22;98203.31;;;19.28;100.00
47815;BME280;33579;50.058;18.130;2023-08-01T02:51:24;98211.66;;;19.31;100.00
47815;BME280;33579;50.058;18.130;2023-08-01T02:52:25;98211.03;;;19.36;100.00
47815;BME280;33579;50.058;18.130;2023-08-01T02:53:27;98203.84;;;19.36;100.00
47815;BME280;33579;50.058;18.130;2023-08-01T02:54:29;98202.81;;;19.37;100.00
47815;BME280;33579;50.058;18.130;2023-08-01T02:55:30;98197.31;;;19.32;100.00
47815;BME280;33579;50.058;18.130;2023-08-01T02:56:32;98198.53;;;19.36;100.00
47815;BME280;33579;50.058;18.130;2023-08-01T02:57:34;98199.94;;;19.39;100.00
47815;BME280;33579;50.058;18.130;2023-08-01T02:58:35;98187.59;;;19.45;100.00
47815;BME280;33579;50.058;18.130;2023-08-01T02:59:37;98194.78;;;19.44;100.00
47815;BME280;33579;50.058;18.130;2023-08-01T03:00:39;98190.47;;;19.43;100.00
47815;BME280;33579;50.058;18.130;2023-08-01T03:01:41;98194.38;;;19.41;100.00
47815;BME280;33579;50.058;18.130;2023-08-01T03:02:43;98186.38;;;19.41;100.00
47815;BME280;33579;50.058;18.130;2023-08-01T03:03:45;98187.59;;;19.45;100.00
47815;BME280;33579;50.058;18.130;2023-08-01T03:04:46;98185.13;;;19.43;100.00
47815;BME280;33579;50.058;18.130;2023-08-01T03:05:48;98185.09;;;19.50;100.00
47815;BME280;33579;50.058;18.130;2023-08-01T03:06:50;98187.75;;;19.50;100.00
47815;BME280;33579;50.058;18.130;2023-08-01T03:07:51;98179.75;;;19.50;100.00
47815;BME280;33579;50.058;18.130;2023-08-01T03:08:53;98181.22;;;19.46;100.00
47815;BME280;33579;50.058;18.130;2023-08-01T03:09:55;98173.59;;;19.49;100.00
47815;BME280;33579;50.058;18.130;2023-08-01T03:10:57;98180.13;;;19.54;100.00
47815;BME280;33579;50.058;18.130;2023-08-01T03:11:59;98165.16;;;19.52;100.00
47815;BME280;33579;50.058;18.130;2023-08-01T03:13:00;98165.53;;;19.56;100.00
47815;BME280;33579;50.058;18.130;2023-08-01T03:14:02;98167.19;;;19.57;100.00
47815;BME280;33579;50.058;18.130;2023-08-01T03:15:04;98169.84;;;19.57;100.00
47815;BME280;33579;50.058;18.130;2023-08-01T03:16:06;98163.69;;;19.57;100.00
47815;BME280;33579;50.058;18.130;2023-08-01T03:17:08;98175.84;;;19.52;100.00
47815;BME280;33579;50.058;18.130;2023-08-01T03:18:10;98176.69;;;19.46;100.00
47815;BME280;33579;50.058;18.130;2023-08-01T03:19:12;98174.25;;;19.45;100.00
47815;BME280;33579;50.058;18.130;2023-08-01T03:20:14;98171.63;;;19.38;100.00
47815;BME280;33579;50.058;18.130;2023-08-01T03:21:15;98174.97;;;19.33;100.00
47815;BME280;33579;50.058;18.130;2023-08-01T03:22:18;98170.03;;;19.30;100.00
47815;BME280;33579;50.058;18.130;2023-08-01T03:23:19;98166.78;;;19.28;100.00
47815;BME280;33579;50.058;18.130;2023-08-01T03:24:21;98165.56;;;19.24;100.00
47815;BME280;33579;50.058;18.130;2023-08-01T03:25:23;98163.72;;;19.24;100.00
47815;BME280;33579;50.058;18.130;2023-08-01T03:26:24;98160.44;;;19.22;100.00
47815;BME280;33579;50.058;18.130;2023-08-01T03:27:26;98160.44;;;19.22;100.00
47815;BME280;33579;50.058;18.130;2023-08-01T03:28:28;98160.44;;;19.22;100.00
47815;BME280;33579;50.058;18.130;2023-08-01T03:29:29;98161.31;;;19.16;100.00
47815;BME280;33579;50.058;18.130;2023-08-01T03:30:32;98157.63;;;19.17;100.00
47815;BME280;33579;50.058;18.130;2023-08-01T03:31:34;98165.63;;;19.17;100.00
47815;BME280;33579;50.058;18.130;2023-08-01T03:32:35;98164.78;;;19.17;100.00
47815;BME280;33579;50.058;18.130;2023-08-01T03:33:37;98168.00;;;19.26;100.00
47815;BME280;33579;50.058;18.130;2023-08-01T03:34:39;98162.25;;;19.29;100.00
47815;BME280;33579;50.058;18.130;2023-08-01T03:35:41;98161.03;;;19.24;100.00
47815;BME280;33579;50.058;18.130;2023-08-01T03:36:43;98167.81;;;19.27;100.00
47815;BME280;33579;50.058;18.130;2023-08-01T03:37:45;98165.53;;;19.31;100.00
47815;BME280;33579;50.058;18.130;2023-08-01T03:38:47;98168.78;;;19.33;100.00
47815;BME280;33579;50.058;18.130;2023-08-01T03:39:50;98163.25;;;19.34;100.00
47815;BME280;33579;50.058;18.130;2023-08-01T03:40:52;98163.25;;;19.34;100.00
47815;BME280;33579;50.058;18.130;2023-08-01T03:41:54;98165.09;;;19.34;100.00
47815;BME280;33579;50.058;18.130;2023-08-01T03:42:55;98163.25;;;19.34;100.00
47815;BME280;33579;50.058;18.130;2023-08-01T03:43:57;98164.34;;;19.20;100.00
47815;BME280;33579;50.058;18.130;2023-08-01T03:44:59;98158.44;;;19.18;100.00
47815;BME280;33579;50.058;18.130;2023-08-01T03:46:01;98157.38;;;19.19;100.00
47815;BME280;33579;50.058;18.130;2023-08-01T03:47:03;98143.69;;;19.15;100.00
47815;BME280;33579;50.058;18.130;2023-08-01T03:48:05;98149.78;;;19.22;100.00
47815;BME280;33579;50.058;18.130;2023-08-01T03:49:07;98161.66;;;19.27;100.00
47815;BME280;33579;50.058;18.130;2023-08-01T03:50:09;98161.00;;;19.31;100.00
47815;BME280;33579;50.058;18.130;2023-08-01T03:51:10;98153.38;;;19.35;100.00
47815;BME280;33579;50.058;18.130;2023-08-01T03:52:12;98151.13;;;19.38;100.00
47815;BME280;33579;50.058;18.130;2023-08-01T03:53:15;98157.00;;;19.47;100.00
47815;BME280;33579;50.058;18.130;2023-08-01T03:54:16;98150.19;;;19.51;100.00
47815;BME280;33579;50.058;18.130;2023-08-01T03:55:18;98148.06;;;19.60;100.00
47815;BME280;33579;50.058;18.130;2023-08-01T03:56:20;98153.56;;;19.65;100.00
47815;BME280;33579;50.058;18.130;2023-08-01T03:57:22;98152.91;;;19.70;100.00
47815;BME280;33579;50.058;18.130;2023-08-01T03:58:23;98157.59;;;19.75;100.00
47815;BME280;33579;50.058;18.130;2023-08-01T03:59:25;98149.97;;;19.78;100.00
47815;BME280;33579;50.058;18.130;2023-08-01T04:00:27;98152.19;;;19.82;100.00
47815;BME280;33579;50.058;18.130;2023-08-01T04:01:28;98145.59;;;19.84;100.00
47815;BME280;33579;50.058;18.130;2023-08-01T04:02:30;98147.81;;;19.87;100.00
47815;BME280;33579;50.058;18.130;2023-08-01T04:03:32;98153.53;;;19.91;100.00
47815;BME280;33579;50.058;18.130;2023-08-01T04:04:34;98150.47;;;19.94;100.00
47815;BME280;33579;50.058;18.130;2023-08-01T04:05:35;98152.69;;;19.97;100.00
47815;BME280;33579;50.058;18.130;2023-08-01T04:06:37;98152.25;;;20.00;100.00
47815;BME280;33579;50.058;18.130;2023-08-01T04:07:40;98149.34;;;20.02;100.00
47815;BME280;33579;50.058;18.130;2023-08-01T04:08:42;98148.31;;;20.03;100.00
47815;BME280;33579;50.058;18.130;2023-08-01T04:09:44;98149.16;;;20.03;100.00
47815;BME280;33579;50.058;18.130;2023-08-01T04:10:45;98153.66;;;20.03;100.00
47815;BME280;33579;50.058;18.130;2023-08-01T04:11:47;98147.50;;;20.02;100.00
47815;BME280;33579;50.058;18.130;2023-08-01T04:12:49;98146.47;;;20.03;100.00
47815;BME280;33579;50.058;18.130;2023-08-01T04:13:51;98149.34;;;20.02;100.00
47815;BME280;33579;50.058;18.130;2023-08-01T04:14:52;98153.28;;;19.99;100.00
47815;BME280;33579;50.058;18.130;2023-08-01T04:15:54;98150.59;;;19.99;100.00
47815;BME280;33579;50.058;18.130;2023-08-01T04:16:56;98151.44;;;20.00;100.00
47815;BME280;33579;50.058;18.130;2023-08-01T04:17:57;98151.88;;;19.97;100.00
47815;BME280;33579;50.058;18.130;2023-08-01T04:18:59;98153.28;;;19.99;100.00
47815;BME280;33579;50.058;18.130;2023-08-01T04:20:01;98153.97;;;19.94;100.00
47815;BME280;33579;50.058;18.130;2023-08-01T04:21:02;98153.34;;;19.92;100.00
47815;BME280;33579;50.058;18.130;2023-08-01T04:22:04;98146.97;;;19.93;100.00
47815;BME280;33579;50.058;18.130;2023-08-01T04:23:06;98153.97;;;19.94;100.00
47815;BME280;33579;50.058;18.130;2023-08-01T04:24:07;98152.31;;;19.93;100.00
47815;BME280;33579;50.058;18.130;2023-08-01T04:25:09;98149.84;;;19.92;100.00
47815;BME280;33579;50.058;18.130;2023-08-01T04:26:11;98146.16;;;19.93;100.00
47815;BME280;33579;50.058;18.130;2023-08-01T04:27:12;98155.59;;;19.96;100.00
47815;BME280;33579;50.058;18.130;2023-08-01T04:28:14;98152.31;;;19.93;100.00
47815;BME280;33579;50.058;18.130;2023-08-01T04:29:16;98153.72;;;19.96;100.00
47815;BME280;33579;50.058;18.130;2023-08-01T04:30:18;98155.94;;;19.99;100.00
47815;BME280;33579;50.058;18.130;2023-08-01T04:31:19;98153.28;;;19.99;100.00
47815;BME280;33579;50.058;18.130;2023-08-01T04:32:21;98158.03;;;19.97;100.00
47815;BME280;33579;50.058;18.130;2023-08-01T04:33:23;98151.06;;;19.96;100.00
47815;BME280;33579;50.058;18.130;2023-08-01T04:34:24;98154.31;;;19.98;100.00
47815;BME280;33579;50.058;18.130;2023-08-01T04:35:26;98153.91;;;20.01;100.00
47815;BME280;33579;50.058;18.130;2023-08-01T04:36:28;98162.50;;;20.03;100.00
47815;BME280;33579;50.058;18.130;2023-08-01T04:37:29;98156.91;;;20.05;100.00
47815;BME280;33579;50.058;18.130;2023-08-01T04:38:31;98158.34;;;20.07;100.00
47815;BME280;33579;50.058;18.130;2023-08-01T04:39:33;98159.75;;;20.10;100.00
47815;BME280;33579;50.058;18.130;2023-08-01T04:40:35;98160.56;;;20.11;100.00
47815;BME280;33579;50.058;18.130;2023-08-01T04:41:37;98161.97;;;20.13;100.00
47815;BME280;33579;50.058;18.130;2023-08-01T04:42:38;98158.06;;;20.16;100.00
47815;BME280;33579;50.058;18.130;2023-08-01T04:43:40;98161.09;;;20.19;100.00
47815;BME280;33579;50.058;18.130;2023-08-01T04:44:42;98167.97;;;20.08;100.00
47815;BME280;33579;50.058;18.130;2023-08-01T04:45:43;98163.19;;;19.92;100.00
47815;BME280;33579;50.058;18.130;2023-08-01T04:46:47;98164.63;;;19.88;100.00
47815;BME280;33579;50.058;18.130;2023-08-01T04:47:49;98168.84;;;19.77;100.00
47815;BME280;33579;50.058;18.130;2023-08-01T04:48:51;98170.16;;;19.67;100.00
47815;BME280;33579;50.058;18.130;2023-08-01T04:49:52;98164.47;;;19.64;100.00
47815;BME280;33579;50.058;18.130;2023-08-01T04:50:54;98163.44;;;19.65;100.00
47815;BME280;33579;50.058;18.130;2023-08-01T04:51:56;98155.25;;;19.60;100.00
47815;BME280;33579;50.058;18.130;2023-08-01T04:52:58;98166.31;;;19.63;100.00
47815;BME280;33579;50.058;18.130;2023-08-01T04:53:59;98160.75;;;19.65;100.00
47815;BME280;33579;50.058;18.130;2023-08-01T04:55:01;98166.16;;;19.58;100.00
47815;BME280;33579;50.058;18.130;2023-08-01T04:56:03;98161.03;;;19.57;100.00
47815;BME280;33579;50.058;18.130;2023-08-01T04:57:05;98163.50;;;19.58;100.00
47815;BME280;33579;50.058;18.130;2023-08-01T04:58:07;98162.38;;;19.66;100.00
47815;BME280;33579;50.058;18.130;2023-08-01T04:59:12;98164.56;;;19.76;100.00
47815;BME280;33579;50.058;18.130;2023-08-01T05:00:14;98166.72;;;19.86;100.00
47815;BME280;33579;50.058;18.130;2023-08-01T05:01:15;98169.34;;;19.92;100.00
47815;BME280;33579;50.058;18.130;2023-08-01T05:02:17;98169.28;;;19.99;100.00
47815;BME280;33579;50.058;18.130;2023-08-01T05:03:19;98161.44;;;20.04;100.00
47815;BME280;33579;50.058;18.130;2023-08-01T05:04:21;98163.53;;;20.02;100.00
47815;BME280;33579;50.058;18.130;2023-08-01T05:05:22;98159.59;;;20.05;100.00
47815;BME280;33579;50.058;18.130;2023-08-01T05:06:24;98161.00;;;20.07;100.00
47815;BME280;33579;50.058;18.130;2023-08-01T05:07:26;98159.75;;;20.10;100.00
47815;BME280;33579;50.058;18.130;2023-08-01T05:08:27;98161.19;;;20.13;100.00
47815;BME280;33579;50.058;18.130;2023-08-01T05:09:29;98159.69;;;20.17;100.00
47815;BME280;33579;50.058;18.130;2023-08-01T05:10:31;98164.63;;;20.13;100.00
47815;BME280;33579;50.058;18.130;2023-08-01T05:11:32;98162.56;;;20.15;100.00
47815;BME280;33579;50.058;18.130;2023-08-01T05:12:34;98162.34;;;20.17;100.00
47815;BME280;33579;50.058;18.130;2023-08-01T05:13:36;98155.97;;;20.18;100.00
47815;BME280;33579;50.058;18.130;2023-08-01T05:14:37;98150.63;;;20.18;100.00
47815;BME280;33579;50.058;18.130;2023-08-01T05:15:39;98138.09;;;20.18;100.00
47815;BME280;33579;50.058;18.130;2023-08-01T05:16:41;98136.69;;;20.16;100.00
47815;BME280;33579;50.058;18.130;2023-08-01T05:17:43;98134.09;;;20.09;100.00
47815;BME280;33579;50.058;18.130;2023-08-01T05:18:44;98131.31;;;19.97;100.00
47815;BME280;33579;50.058;18.130;2023-08-01T05:19:46;98133.66;;;19.87;100.00
47815;BME280;33579;50.058;18.130;2023-08-01T05:20:48;98128.94;;;19.89;100.00